createdAt,value
2019-05-03T00:05:23.147Z,6.10
2019-05-03T00:11:24.969Z,6.10
2019-05-03T00:17:26.700Z,6.87
2019-05-03T00:23:28.392Z,6.70
2019-05-03T00:29:32.331Z,6.35
2019-05-03T00:35:51.987Z,6.45
2019-05-03T00:41:53.842Z,5.85
2019-05-03T00:47:55.324Z,6.22
2019-05-03T00:53:56.877Z,6.67
2019-05-03T00:59:58.586Z,6.70
2019-05-03T01:06:02.140Z,6.80
2019-05-03T01:12:03.944Z,6.58
2019-05-03T01:18:08.383Z,5.85
2019-05-03T01:24:09.988Z,6.25
2019-05-03T01:30:12.006Z,6.62
2019-05-03T01:36:14.169Z,6.60
2019-05-03T01:42:17.228Z,7.28
2019-05-03T01:48:29.599Z,7.05
2019-05-03T01:54:32.310Z,7.53
2019-05-03T02:00:33.938Z,7.90
2019-05-03T02:06:35.604Z,8.13
2019-05-03T02:12:37.042Z,8.43
2019-05-03T02:18:38.841Z,8.25
2019-05-03T02:24:42.231Z,8.00
2019-05-03T02:30:44.470Z,7.85
2019-05-03T02:36:49.327Z,5.50
2019-05-03T02:43:09.383Z,4.70
2019-05-03T02:49:15.587Z,4.72
2019-05-03T02:55:17.586Z,4.70
2019-05-03T03:01:20.647Z,4.40
2019-05-03T03:07:22.629Z,4.47
2019-05-03T03:13:25.590Z,5.17
2019-05-03T03:19:28.676Z,4.92
2019-05-03T03:25:36.274Z,5.22
2019-05-03T03:31:48.604Z,4.83
2019-05-03T03:37:51.691Z,5.17
2019-05-03T03:43:55.791Z,4.47
2019-05-03T03:49:57.775Z,4.70
2019-05-03T03:56:01.903Z,4.53
2019-05-03T04:02:05.946Z,5.15
2019-05-03T04:08:08.084Z,3.83
2019-05-03T04:14:20.280Z,4.47
2019-05-03T04:20:26.932Z,4.08
2019-05-03T04:26:29.883Z,3.92
2019-05-03T04:32:31.796Z,4.10
2019-05-03T04:38:35.446Z,4.90
2019-05-03T04:44:36.845Z,5.28
2019-05-03T04:50:38.521Z,4.17
2019-05-03T04:56:40.000Z,3.47
2019-05-03T05:02:41.482Z,3.17
2019-05-03T05:08:45.834Z,3.42
2019-05-03T05:14:46.436Z,4.08
2019-05-03T05:20:52.815Z,4.42
2019-05-03T05:26:56.265Z,3.50
2019-05-03T05:32:57.854Z,3.58
2019-05-03T05:38:59.490Z,3.00
2019-05-03T05:45:01.043Z,3.45
2019-05-03T05:51:04.429Z,3.10
2019-05-03T05:57:25.617Z,3.00
2019-05-03T06:03:27.334Z,2.42
2019-05-03T06:09:30.656Z,2.72
2019-05-03T06:15:54.820Z,2.47
2019-05-03T06:21:57.349Z,1.90
2019-05-03T06:28:00.414Z,2.08
2019-05-03T06:34:02.271Z,1.98
2019-05-03T06:40:06.191Z,2.30
2019-05-03T06:46:07.986Z,2.20
2019-05-03T06:52:09.538Z,2.00
2019-05-03T06:58:11.507Z,1.70
2019-05-03T07:04:26.771Z,1.77
2019-05-03T07:10:35.265Z,2.08
2019-05-03T07:16:38.246Z,1.60
2019-05-03T07:22:39.716Z,1.90
2019-05-03T07:28:46.897Z,2.10
2019-05-03T07:34:45.306Z,1.65
2019-05-03T07:40:46.877Z,1.77
2019-05-03T07:46:48.317Z,1.82
2019-05-03T07:52:49.793Z,1.70
2019-05-03T07:58:59.772Z,2.47
2019-05-03T08:04:56.181Z,1.55
2019-05-03T08:10:57.663Z,2.45
2019-05-03T08:16:59.047Z,1.70
2019-05-03T08:23:00.628Z,1.95
2019-05-03T08:29:13.394Z,2.22
2019-05-03T08:35:15.264Z,1.75
2019-05-03T08:41:18.890Z,1.82
2019-05-03T08:47:20.589Z,1.87
2019-05-03T08:53:22.225Z,1.47
2019-05-03T08:59:29.781Z,1.50
2019-05-03T09:05:27.166Z,1.40
2019-05-03T09:11:34.057Z,1.50
2019-05-03T09:17:32.443Z,1.52
2019-05-03T09:23:35.712Z,1.80
2019-05-03T09:29:43.187Z,1.65
2019-05-03T09:35:40.690Z,1.57
2019-05-03T09:41:42.419Z,1.77
2019-05-03T09:47:44.859Z,1.95
2019-05-03T09:53:57.009Z,1.20
2019-05-03T10:00:00.112Z,1.75
2019-05-03T10:06:01.932Z,2.05
2019-05-03T10:12:05.682Z,1.65
2019-05-03T10:18:11.104Z,1.80
2019-05-03T10:24:12.281Z,1.45
2019-05-03T10:30:17.923Z,1.62
2019-05-03T10:36:20.119Z,1.95
2019-05-03T10:42:21.622Z,1.47
2019-05-03T10:48:24.813Z,1.50
2019-05-03T10:54:26.481Z,1.80
2019-05-03T11:00:50.235Z,2.10
2019-05-03T11:06:31.666Z,1.80
2019-05-03T11:12:34.721Z,1.75
2019-05-03T11:18:36.331Z,1.90
2019-05-03T11:24:37.894Z,1.85
2019-05-03T11:30:52.228Z,1.77
2019-05-03T11:37:01.954Z,1.37
2019-05-03T11:43:04.709Z,1.98
2019-05-03T11:49:06.279Z,1.80
2019-05-03T11:55:11.723Z,1.65
2019-05-03T12:01:19.690Z,2.00
2019-05-03T12:07:38.837Z,1.57
2019-05-03T12:13:36.033Z,2.00
2019-05-03T12:19:38.818Z,1.82
2019-05-03T12:25:41.703Z,1.70
2019-05-03T12:31:45.579Z,1.75
2019-05-03T12:37:47.154Z,1.60
2019-05-03T12:43:48.625Z,2.30
2019-05-03T12:49:50.107Z,2.35
2019-05-03T12:55:51.981Z,2.30
2019-05-03T13:02:10.449Z,3.02
2019-05-03T13:14:34.586Z,2.30
2019-05-03T13:20:36.213Z,1.85
2019-05-03T13:26:37.618Z,5.30
2019-05-03T13:32:39.255Z,2.12
2019-05-03T13:38:40.730Z,2.70
2019-05-03T13:44:42.310Z,1.95
2019-05-03T13:50:44.619Z,1.92
2019-05-03T13:56:47.231Z,1.82
2019-05-03T14:02:48.968Z,1.70
2019-05-03T14:08:50.595Z,1.92
2019-05-03T14:14:52.337Z,2.00
2019-05-03T14:21:07.642Z,1.80
2019-05-03T14:27:09.255Z,1.75
2019-05-03T14:33:10.946Z,2.35
2019-05-03T14:39:15.211Z,2.22
2019-05-03T14:45:17.638Z,1.70
2019-05-03T14:51:19.618Z,1.90
2019-05-03T14:57:25.727Z,1.87
2019-05-03T15:03:30.213Z,1.80
2019-05-03T15:09:31.941Z,1.52
2019-05-03T15:15:34.742Z,1.92
2019-05-03T15:21:36.416Z,1.87
2019-05-03T15:27:38.008Z,1.92
2019-05-03T15:33:39.636Z,1.90
2019-05-03T15:39:41.204Z,1.92
2019-05-03T15:45:56.476Z,1.72
2019-05-03T15:51:57.963Z,1.30
2019-05-03T15:58:00.445Z,2.08
2019-05-03T16:04:01.992Z,1.90
2019-05-03T16:10:04.675Z,1.85
2019-05-03T16:16:06.392Z,2.30
2019-05-03T16:22:07.869Z,1.95
2019-05-03T16:28:11.499Z,2.35
2019-05-03T16:34:13.156Z,1.60
2019-05-03T16:40:16.790Z,2.17
2019-05-03T16:46:18.515Z,1.95
2019-05-03T16:52:20.168Z,1.85
2019-05-03T16:58:21.603Z,1.80
2019-05-03T17:04:34.678Z,1.80
2019-05-03T17:10:37.974Z,2.58
2019-05-03T17:16:40.998Z,2.17
2019-05-03T17:22:42.442Z,1.85
2019-05-03T17:28:44.735Z,2.25
2019-05-03T17:34:46.697Z,1.90
2019-05-03T17:40:56.021Z,2.22
2019-05-03T17:46:57.647Z,1.87
2019-05-03T17:53:01.277Z,2.00
2019-05-03T17:59:04.850Z,2.35
2019-05-03T18:05:25.210Z,1.95
2019-05-03T18:11:28.973Z,2.98
2019-05-03T18:17:30.450Z,2.47
2019-05-03T18:23:31.980Z,2.20
2019-05-03T18:29:34.585Z,2.27
2019-05-03T18:35:38.282Z,2.25
2019-05-03T18:41:39.841Z,2.65
2019-05-03T18:47:44.974Z,2.00
2019-05-03T18:53:45.099Z,2.08
2019-05-03T18:59:46.633Z,2.62
2019-05-03T19:05:50.221Z,2.27
2019-05-03T19:11:59.553Z,2.60
2019-05-03T19:18:19.681Z,2.27
2019-05-03T19:24:21.231Z,2.52
2019-05-03T19:30:25.796Z,2.42
2019-05-03T19:36:27.417Z,2.42
2019-05-03T19:42:28.861Z,2.47
2019-05-03T19:48:30.437Z,2.62
2019-05-03T19:54:32.057Z,3.00
2019-05-03T20:00:38.403Z,2.92
2019-05-03T20:06:58.285Z,3.72
2019-05-03T20:13:00.201Z,2.45
2019-05-03T20:19:16.730Z,2.75
2019-05-03T20:25:05.619Z,2.70
2019-05-03T20:31:09.073Z,2.95
2019-05-03T20:37:11.114Z,2.60
2019-05-03T20:43:17.314Z,2.67
2019-05-03T20:49:18.932Z,2.58
2019-05-03T20:55:20.407Z,2.87
2019-05-03T21:01:21.988Z,2.95
2019-05-03T21:07:25.834Z,3.00
2019-05-03T21:13:39.902Z,2.52
2019-05-03T21:19:35.328Z,2.95
2019-05-03T21:26:02.192Z,3.02
2019-05-03T21:31:45.182Z,2.30
2019-05-03T21:37:46.636Z,3.20
2019-05-03T21:43:48.221Z,3.17
2019-05-03T21:49:51.887Z,2.80
2019-05-03T21:55:53.437Z,2.70
2019-05-03T22:01:55.262Z,2.80
2019-05-03T22:07:56.705Z,2.75
2019-05-03T22:14:01.702Z,2.92
2019-05-03T22:23:01.255Z,2.72
2019-05-03T22:36:29.368Z,3.87
2019-05-03T22:42:31.929Z,3.17
2019-05-03T22:48:33.396Z,3.55
2019-05-03T22:54:34.970Z,3.60
2019-05-03T23:00:36.591Z,3.37
2019-05-03T23:06:37.957Z,3.22
2019-05-03T23:12:39.411Z,3.52
2019-05-03T23:18:40.915Z,3.30
2019-05-03T23:24:42.392Z,3.40
2019-05-03T23:30:43.970Z,3.98
2019-05-03T23:36:45.595Z,4.35
2019-05-03T23:42:47.190Z,4.62
2019-05-03T23:48:48.660Z,4.83
2019-05-03T23:54:50.710Z,5.10
